• Join FlightAware (Why Join?)
  • Login
  • US Flag 
12:12AM EDT


 

Airport Tracker/Info


-or-


 

Live Flight TrackerFlight Track Log ✈ VH-VQB ✈ 15-Apr-2013 ✈ YBCS / CNS - YMML / MEL

Flight Track Log - Related Links

Times and Time Zones

All times are in EDT time to prevent confusion due to time zone crossing. See the VH-VQB flight status page for this flight to view local times or setup timezone preferences in your user account.

Time Position Orientation Groundspeed Altitude Reporting Facility
EDT Latitude Longitude Course Direction KTS MPH feet Rate Location/Type
06:52AM -16.9000 145.7650 115° Southeast 152 175 1,500  Level FlightAware
06:52AM -16.9010 145.7690 105° East 152 175 1,700 2,160 Climbing FlightAware
06:53AM -16.8939 145.7825 105° East 164 189 2,300 2,100 Climbing Aus ATC (RADAR)
06:53AM -16.8950 145.7820 105° East 158 182 2,400 1,800 Climbing FlightAware
06:53AM -16.8820 145.7920 36° Northeast 163 188 3,000 1,440 Climbing FlightAware
06:54AM -16.8660 145.8040 36° Northeast 185 213 3,500 1,200 Climbing FlightAware
06:54AM -16.8450 145.8240 42° Northeast 223 257 4,100 1,320 Climbing FlightAware
06:54AM -16.8420 145.8350 74° East 235 270 4,400 1,680 Climbing FlightAware
06:54AM -16.8440 145.8530 97° East 250 288 4,800 1,980 Climbing FlightAware
06:55AM -16.8540 145.8690 123° Southeast 269 310 5,400 3,240 Climbing FlightAware
06:55AM -16.8734 145.8946 123° Southeast 270 311 6,800 3,360 Climbing Aus ATC (RADAR)
06:55AM -16.8770 145.9000 123° Southeast 270 311 7,100 2,520 Climbing FlightAware
06:56AM -16.8970 145.9280 127° Southeast 294 338 8,200 2,640 Climbing FlightAware
06:56AM -16.9189 145.9555 127° Southeast 296 341 9,200 2,580 Climbing Aus ATC (RADAR)
06:56AM -16.9260 145.9600 127° Southeast 311 358 9,500 2,820 Climbing FlightAware
06:57AM -16.9750 145.9890 150° Southeast 317 365 11,500 2,160 Climbing FlightAware
06:57AM -17.0310 146.0210 151° Southeast 349 402 12,400 1,500 Climbing FlightAware
06:58AM -17.0673 146.0423 151° Southeast 360 414 13,100 1,620 Climbing Aus ATC (RADAR)
06:58AM -17.0907 146.0560 151° Southeast 371 427 13,400 1,560 Climbing Aus ATC (RADAR)
06:58AM -17.1000 146.0610 151° Southeast 390 449 13,700 2,040 Climbing FlightAware
06:59AM -17.1462 146.0888 151° Southeast 388 447 14,600 1,320 Climbing Aus ATC (RADAR)
06:59AM -17.1730 146.1040 151° Southeast 410 472 14,700 1,440 Climbing FlightAware
07:00AM -17.2420 146.1450 150° Southeast 428 493 16,000 1,680 Climbing FlightAware
07:00AM -17.3014 146.1795 150° Southeast 431 496 16,700 1,560 Climbing Aus ATC (RADAR)
07:00AM -17.3210 146.1910 150° Southeast 441 507 17,200 2,760 Climbing FlightAware
07:01AM -17.3830 146.2270 151° Southeast 426 490 19,000 2,280 Climbing FlightAware
07:02AM -17.4650 146.2563 151° Southeast 426 490 20,100 1,440 Climbing Aus ATC (RADAR)
07:02AM -17.4660 146.2570 151° Southeast 433 498 20,100 1,080 Level FlightAware
07:02AM -17.5470 146.2800 165° South 448 516 20,900 900 Climbing FlightAware
07:03AM -17.6260 146.2970 168° South 454 522 21,300 960 Climbing FlightAware
07:03AM -17.6913 146.2941 168° South 458 527 22,000 1,140 Climbing Aus ATC (RADAR)
07:04AM -17.7663 146.2923 181° South 462 532 22,500 1,140 Climbing Aus ATC (RADAR)
07:05AM -17.9415 146.2860 182° South 468 539 24,200 1,080 Climbing Aus ATC (RADAR)
07:06AM -18.0872 146.2805 182° South 478 550 25,200 960 Climbing Aus ATC (RADAR)
07:07AM -18.1322 146.2789 182° South 479 551 25,600 720 Climbing Aus ATC (RADAR)
07:08AM -18.2925 146.2730 182° South 497 572 26,300 840 Climbing Aus ATC (RADAR)
07:08AM -18.3270 146.2721 181° South 495 570 26,800 1,080 Climbing Aus ATC (RADAR)
07:09AM -18.4083 146.2689 182° South 497 572 27,200 1,020 Climbing Aus ATC (RADAR)
07:10AM -18.5480 146.2630 182° South 498 573 28,400 1,140 Climbing Aus ATC (RADAR)
07:10AM -18.6289 146.2607 181° South 497 572 29,000 960 Climbing Aus ATC (RADAR)
07:11AM -18.7452 146.2559 182° South 499 574 29,800 960 Climbing Aus ATC (RADAR)
07:12AM -18.8154 146.2530 182° South 503 579 30,300 1,200 Climbing Aus ATC (RADAR)
07:13AM -18.9322 146.2490 182° South 502 578 31,400 1,440 Climbing Aus ATC (RADAR)
07:13AM -19.0240 146.2448 183° South 492 566 32,500 1,680 Climbing Aus ATC (RADAR)
07:13AM -19.0380 146.2450 183° South 482 555 32,800 1,320 Climbing FlightAware
07:14AM -19.1035 146.2420 183° South 484 557 33,300 900 Climbing Aus ATC (RADAR)
07:14AM -19.1400 146.2410 183° South 486 559 33,500 900 Climbing FlightAware
07:15AM -19.2350 146.2380 182° South 486 559 34,200 1,200 Climbing FlightAware
07:15AM -19.2751 146.2350 182° South 488 562 34,600 1,020 Climbing Aus ATC (RADAR)
07:16AM -19.3350 146.2340 182° South 483 556 35,000 660 Climbing FlightAware
07:16AM -19.4280 146.2300 182° South 499 574 35,400 720 Climbing FlightAware
07:17AM -19.4930 146.2272 182° South 499 574 35,800 900 Climbing Aus ATC (RADAR)
07:17AM -19.5230 146.2270 182° South 499 574 36,000 300 Climbing FlightAware
07:17AM -19.5733 146.2239 182° South 494 568 36,000  Level Aus ATC (RADAR)
07:18AM -19.6260 146.2230 182° South 502 578 36,000 -120 Level FlightAware
07:18AM -19.7131 146.2194 182° South 498 573 35,900  Descending Aus ATC (RADAR)
07:18AM -19.7210 146.2200 182° South 496 571 36,000 60 Climbing FlightAware
07:19AM -19.8220 146.2160 182° South 497 572 36,000  Level FlightAware
07:20AM -19.9170 146.2120 182° South 499 574 36,000 -120 Level FlightAware
07:20AM -19.9893 146.2092 182° South 493 567 35,900 -120 Descending Aus ATC (RADAR)
07:21AM -20.0594 146.2067 182° South 500 575 35,900 60 Level Aus ATC (RADAR)
07:21AM -20.1000 146.2050 182° South 495 570 36,000  Climbing FlightAware
07:22AM -20.1872 146.2024 182° South 496 571 35,900 -120 Descending Aus ATC (RADAR)
07:22AM -20.2573 146.1998 182° South 496 571 35,900 120 Level Aus ATC (RADAR)
07:22AM -20.2770 146.1990 182° South 495 570 36,000  Climbing FlightAware
07:23AM -20.4087 146.1942 182° South 501 577 35,900  Descending Aus ATC (RADAR)
07:23AM -20.4400 146.1920 182° South 495 570 36,000  Climbing FlightAware
07:24AM -20.5251 146.1897 182° South 494 568 35,900  Descending Aus ATC (RADAR)
07:25AM -20.6050 146.1860 182° South 496 571 36,000  Climbing FlightAware
07:25AM -20.6654 146.1845 182° South 503 579 35,900 -180 Descending Aus ATC (RADAR)
07:25AM -20.7002 146.1831 182° South 501 577 35,900  Level Aus ATC (RADAR)
07:26AM -20.7825 146.1802 182° South 500 575 35,900 120 Level Aus ATC (RADAR)
07:26AM -20.7940 146.1790 182° South 500 575 36,000 60 Climbing FlightAware
07:27AM -20.8920 146.1750 182° South 500 575 36,000  Level FlightAware
07:27AM -20.9940 146.1721 182° South 499 574 36,000  Level Aus ATC (RADAR)
07:27AM -20.9830 146.1720 182° South 501 577 36,000  Level FlightAware
07:28AM -21.0920 146.1680 182° South 502 578 36,000  Level FlightAware
07:29AM -21.1597 146.1660 182° South 506 582 36,000  Level Aus ATC (RADAR)
07:29AM -21.1820 146.1640 182° South 512 589 36,000  Level FlightAware
07:29AM -21.2690 146.1610 182° South 514 592 36,000  Level FlightAware
07:30AM -21.3868 146.1575 182° South 511 588 36,000  Level Aus ATC (RADAR)
07:30AM -21.3750 146.1570 182° South 512 589 36,000  Level FlightAware
07:31AM -21.5078 146.1527 182° South 516 594 36,000 60 Level Aus ATC (RADAR)
07:31AM -21.5090 146.1520 182° South 512 589 36,100 60 Climbing FlightAware
07:32AM -21.5900 146.1490 182° South 512 589 36,100  Level FlightAware
07:32AM -21.6700 146.1460 182° South 512 589 36,100  Level FlightAware
07:33AM -21.7510 146.1430 182° South 512 589 36,100 -120 Level FlightAware
07:34AM -21.8765 146.1387 182° South 509 586 36,000 -180 Descending Aus ATC (RADAR)
07:34AM -21.9120 146.1371 182° South 506 582 36,000 180 Level Aus ATC (RADAR)
07:34AM -21.8520 146.1390 182° South 512 589 36,100  Climbing FlightAware
07:34AM -21.9833 146.1350 182° South 504 580 36,000  Descending Aus ATC (RADAR)
07:35AM -21.9320 146.1360 182° South 512 589 36,100 60 Climbing FlightAware
07:35AM -22.0130 146.1330 182° South 512 589 36,100 -120 Level FlightAware
07:36AM -22.2197 146.1257 182° South 504 580 36,000  Descending Aus ATC (RADAR)
07:36AM -22.0930 146.1300 182° South 512 589 36,100 120 Climbing FlightAware
07:37AM -22.1740 146.1270 182° South 512 589 36,100 -120 Level FlightAware
07:37AM -22.4080 146.1183 182° South 504 580 36,000  Descending Aus ATC (RADAR)
07:37AM -22.2740 146.1230 182° South 512 589 36,100  Climbing FlightAware
07:38AM -22.5249 146.1138 182° South 504 580 36,000  Descending Aus ATC (RADAR)
07:38AM -22.3550 146.1200 182° South 512 589 36,100  Climbing FlightAware
07:39AM -22.6184 146.1102 182° South 502 578 36,000  Descending Aus ATC (RADAR)
07:39AM -22.4350 146.1170 182° South 512 589 36,100 -180 Climbing FlightAware
07:39AM -22.7003 146.1042 182° South 507 583 35,900  Descending Aus ATC (RADAR)
07:39AM -22.5160 146.1140 182° South 512 589 36,100 240 Climbing FlightAware
07:40AM -22.5960 146.1110 182° South 512 589 36,100 -120 Level FlightAware
07:41AM -22.9026 146.0694 182° South 491 565 36,000 -120 Descending Aus ATC (RADAR)
07:41AM -22.9366 146.0639 188° South 493 567 36,000  Level Aus ATC (RADAR)
07:42AM -23.0573 146.0373 191° South 483 556 36,000  Level Aus ATC (RADAR)
07:43AM -23.1342 146.0216 191° South 481 554 36,000  Level Aus ATC (RADAR)
07:44AM -23.3228 145.9883 189° South 489 563 36,000  Level Aus ATC (RADAR)
07:45AM -23.4246 145.9742 187° South 491 565 36,000  Level Aus ATC (RADAR)
07:46AM -23.5728 145.9554 187° South 496 571 36,000  Level Aus ATC (RADAR)
07:46AM -23.6071 145.9509 187° South 497 572 36,000  Level Aus ATC (RADAR)
07:47AM -23.6873 145.9411 186° South 497 572 36,000  Level Aus ATC (RADAR)
07:47AM -23.7905 145.9265 187° South 500 575 36,000  Level Aus ATC (RADAR)
07:48AM -23.8952 145.9165 185° South 500 575 36,000  Level Aus ATC (RADAR)
07:49AM -23.9885 145.9110 183° South 496 571 36,000 -420 Level Aus ATC (RADAR)
07:49AM -24.0714 145.9068 183° South 502 578 35,500  Descending Aus ATC (RADAR)
07:50AM -24.2020 145.9008 182° South 508 585 36,000 240 Climbing Aus ATC (RADAR)
07:51AM -24.3067 145.8958 183° South 503 579 35,900  Descending Aus ATC (RADAR)
07:52AM -24.4350 145.8890 183° South 503 579 36,000 60 Climbing Aus ATC (RADAR)
07:52AM -24.5043 145.8854 183° South 501 577 36,000  Level Aus ATC (RADAR)
07:53AM -24.5625 145.8827 182° South 501 577 36,000  Level Aus ATC (RADAR)
07:56AM -24.9673 145.8569 183° South 39,000  Climbing Aus ATC (Calculated)
07:56AM -25.0356 145.8525 183° South 39,000 -300 Level Aus ATC (Calculated)
07:58AM -25.1624 145.8444 183° South  Level FlightAware Approximate
07:58AM -25.2341 145.8398 183° South 39,000  Level Aus ATC (Calculated)
07:59AM -25.2759 145.8371 183° South  Level FlightAware Approximate
08:00AM -25.4195 145.8278 183° South  Level FlightAware Approximate
08:01AM -25.5331 145.8205 183° South  Level FlightAware Approximate
08:02AM -25.6466 145.8132 183° South  Level FlightAware Approximate
08:03AM -25.7601 145.8058 183° South  Level FlightAware Approximate
08:03AM -25.9537 145.7933 183° South 39,000  Level Aus ATC (Calculated)
08:04AM -25.8736 145.7985 183° South  Level FlightAware Approximate
08:05AM -26.1391 145.7812 183° South  Level FlightAware Approximate
08:06AM -26.2526 145.7738 183° South  Level FlightAware Approximate
08:07AM -26.3661 145.7664 183° South  Level FlightAware Approximate
08:08AM -26.4797 145.7589 183° South  Level FlightAware Approximate
08:08AM -26.6282 145.7492 187° South 39,000  Level Aus ATC (Calculated)
08:08AM -26.6370 145.7480 183° South 476 548 36,000 -2,400 Descending FlightAware
08:09AM -26.7470 145.7410 183° South 475 547 36,000  Level FlightAware
08:10AM -26.8410 145.7350 183° South 474 545 36,000  Level FlightAware
08:10AM -26.9560 145.7276 North 39,000  Climbing Aus ATC (Calculated)
08:11AM -26.9320 145.7300 183° South 474 545 36,000 -3,540 Descending FlightAware
08:11AM -27.0060 145.7250 183° South 474 545 36,000  Level FlightAware
08:12AM -27.1290 145.7160 184° South 474 545 36,000  Level FlightAware
08:12AM -27.2635 145.7032 North 39,000  Climbing Aus ATC (Calculated)
08:13AM -27.2170 145.7100 184° South 471 542 36,000 -2,760 Descending FlightAware
08:13AM -27.2900 145.7010 186° South 472 543 36,000  Level FlightAware
08:14AM -27.3670 145.6940 185° South 472 543 36,000  Level FlightAware
08:15AM -27.4410 145.6860 185° South 472 543 36,000  Level FlightAware
08:15AM -27.5150 145.6790 185° South 472 543 36,000  Level FlightAware
08:16AM -27.5890 145.6720 185° South 472 543 36,000  Level FlightAware
08:17AM -27.6820 145.6630 185° South 472 543 36,000  Level FlightAware
08:17AM -27.8450 145.6436 North 39,000  Climbing Aus ATC (Calculated)
08:18AM -27.7560 145.6550 185° South 472 543 36,000 -2,700 Descending FlightAware
08:18AM -27.8300 145.6480 185° South 472 543 36,000  Level FlightAware
08:19AM -27.9040 145.6410 185° South 472 543 36,000  Level FlightAware
08:19AM -28.0989 145.6192 North 39,000  Climbing Aus ATC (Calculated)
08:20AM -27.9770 145.6330 185° South 472 543 36,000 -2,340 Descending FlightAware
08:20AM -28.0510 145.6260 185° South 472 543 36,000  Level FlightAware
08:21AM -28.1440 145.6170 185° South 472 543 36,000  Level FlightAware
08:22AM -28.2180 145.6100 185° South 472 543 36,000  Level FlightAware
08:22AM -28.2920 145.6020 185° South 472 543 36,000  Level FlightAware
08:23AM -28.3660 145.5950 185° South 472 543 36,000  Level FlightAware
08:23AM -28.6996 145.5746 184° South 39,000  Climbing Aus ATC (Calculated)
08:26AM -28.9417 145.5565 184° South  Level FlightAware Approximate
08:26AM -29.0786 145.5463 184° South 39,000  Level Aus ATC (Calculated)
08:27AM -29.0552 145.5480 184° South  Level FlightAware Approximate
08:28AM -28.9550 145.5555 North  Level FlightAware Approximate
08:29AM -29.0691 145.5470 184° South  Level FlightAware Approximate
08:30AM -29.0738 145.5466 184° South  Level FlightAware Approximate
08:31AM -29.1879 145.5381 184° South  Level FlightAware Approximate
08:31AM -29.7076 145.4988 184° South 39,000  Level Aus ATC (Calculated)
08:32AM -29.3020 145.5295 184° South  Level FlightAware Approximate
08:32AM -29.7862 145.4928 184° South 39,000  Level Aus ATC (Calculated)
08:34AM -29.9764 145.4783 184° South  Level FlightAware Approximate
08:35AM -30.0905 145.4695 184° South  Level FlightAware Approximate
08:36AM -30.2047 145.4608 184° South  Level FlightAware Approximate
08:36AM -30.2578 145.4567 184° South 39,000  Level Aus ATC (Calculated)
08:37AM -30.3188 145.4520 184° South  Level FlightAware Approximate
08:38AM -30.3986 145.4458 184° South  Level FlightAware Approximate
08:39AM -30.5127 145.4370 184° South  Level FlightAware Approximate
08:40AM -30.6268 145.4282 184° South  Level FlightAware Approximate
08:41AM -30.7409 145.4194 184° South  Level FlightAware Approximate
08:41AM -30.8865 145.4080 184° South 39,000  Level Aus ATC (Calculated)
08:42AM -30.9651 145.4019 184° South 39,000 -480 Level Aus ATC (Calculated)
08:43AM -31.0437 145.3957 184° South 39,000 -540 Level Aus ATC (Calculated)
08:45AM -31.2416 145.3803 184° South  Level FlightAware Approximate
08:46AM -31.3557 145.3713 184° South  Level FlightAware Approximate
08:46AM -31.5152 145.3587 184° South 39,000  Level Aus ATC (Calculated)
08:47AM -31.4698 145.3623 184° South  Level FlightAware Approximate
08:48AM -31.5923 145.5132 120° Southeast  Level FlightAware Approximate
08:48AM -31.7310 145.3420 120° Southeast 448 516 36,000  Level FlightAware
08:49AM -31.8440 145.3330 184° South 448 516 36,000  Level FlightAware
08:50AM -32.0284 145.3210 184° South 448 516 36,000  Level Aus ATC (RADAR)
08:50AM -32.0180 145.3190 184° South 451 519 36,000  Level FlightAware
08:51AM -32.1260 145.3110 184° South 452 520 36,000  Level FlightAware
08:51AM -32.1611 145.3123 184° South 447 514 36,000  Level Aus ATC (RADAR)
08:52AM -32.2070 145.3050 184° South 453 521 36,000  Level FlightAware
08:52AM -32.2820 145.2990 184° South 453 521 36,000 60 Level FlightAware
08:53AM -32.3591 145.2967 184° South 440 506 36,100 60 Climbing Aus ATC (RADAR)
08:53AM -32.4355 145.2870 186° South 451 519 36,100 -180 Level Aus ATC (RADAR)
08:54AM -32.4410 145.2860 186° South 449 517 36,000  Descending FlightAware
08:54AM -32.5606 145.2762 186° South 452 520 36,100 60 Climbing Aus ATC (RADAR)
08:55AM -32.5916 145.2738 184° South 451 519 36,100 -240 Level Aus ATC (RADAR)
08:55AM -32.6170 145.2720 184° South 438 504 36,000  Descending FlightAware
08:56AM -32.7658 145.2601 184° South 445 512 36,100  Climbing Aus ATC (RADAR)
08:56AM -32.7600 145.2600 184° South 437 503 36,000  Descending FlightAware
08:57AM -32.8579 145.2531 184° South 445 512 36,100  Climbing Aus ATC (RADAR)
08:57AM -32.9050 145.2490 184° South 437 503 36,000  Descending FlightAware
08:58AM -32.9608 145.2446 184° South 446 513 36,100 120 Climbing Aus ATC (RADAR)
08:58AM -32.9915 145.2419 184° South 444 511 36,100  Level Aus ATC (RADAR)
08:58AM -33.0519 145.2376 183° South 441 507 36,100 -240 Level Aus ATC (RADAR)
08:59AM -33.0480 145.2370 183° South 435 501 36,000 -120 Descending FlightAware
08:59AM -33.1745 145.2272 183° South 443 510 36,000  Level Aus ATC (RADAR)
09:00AM -33.1900 145.2260 183° South 433 498 36,000  Level FlightAware
09:00AM -33.2674 145.2191 183° South 444 511 36,000  Level Aus ATC (RADAR)
09:00AM -33.2730 145.2190 183° South 435 501 36,000  Level FlightAware
09:01AM -33.3670 145.2110 184° South 435 501 36,000 60 Level FlightAware
09:02AM -33.4450 145.2050 184° South 434 499 36,100 60 Climbing FlightAware
09:02AM -33.5200 145.1990 184° South 431 496 36,100 -120 Level FlightAware
09:03AM -33.5632 145.1951 184° South 440 506 36,000  Descending Aus ATC (RADAR)
09:03AM -33.6010 145.1930 184° South 431 496 36,100  Climbing FlightAware
09:03AM -33.6539 145.1874 184° South 437 503 36,000 -180 Descending Aus ATC (RADAR)
09:04AM -33.7040 145.1830 184° South 436 502 36,000 60 Level FlightAware
09:04AM -33.7745 145.1779 184° South 436 502 36,100  Climbing Aus ATC (RADAR)
09:05AM -33.7960 145.1760 184° South 436 502 36,000 -120 Descending FlightAware
09:05AM -33.8740 145.1690 184° South 436 502 36,000  Level FlightAware
09:06AM -33.9451 145.1634 184° South 433 498 36,000  Level Aus ATC (RADAR)
09:06AM -33.9670 145.1620 184° South 436 502 36,000  Level FlightAware
09:07AM -34.0358 145.1559 184° South 436 502 36,000  Level Aus ATC (RADAR)
09:07AM -34.0450 145.1550 184° South 436 502 36,000  Level FlightAware
09:07AM -34.1050 145.1500 184° South 438 504 36,000  Level FlightAware
09:08AM -34.1566 145.1463 184° South 437 503 36,000  Level Aus ATC (RADAR)
09:08AM -34.2150 145.1410 184° South 439 505 36,000 60 Level FlightAware
09:09AM -34.2920 145.1350 184° South 438 504 36,100  Climbing FlightAware
09:09AM -34.3820 145.1270 184° South 437 503 36,000 -120 Descending FlightAware
09:10AM -34.4710 145.1200 184° South 436 502 36,000  Level FlightAware
09:11AM -34.5401 145.1144 184° South 436 502 36,000  Level Aus ATC (RADAR)
09:11AM -34.5530 145.1130 184° South 436 502 36,000  Level FlightAware
09:12AM -34.6330 145.1060 184° South 436 502 36,000  Level FlightAware
09:12AM -34.7105 145.0988 184° South 433 498 36,000  Level Aus ATC (RADAR)
09:12AM -34.7220 145.0970 184° South 434 499 36,000  Level FlightAware
09:13AM -34.7903 145.0861 184° South 435 501 36,000  Level Aus ATC (RADAR)
09:13AM -34.7940 145.0850 184° South 434 499 36,000  Level FlightAware
09:14AM -34.8810 145.0720 187° South 434 499 36,000  Level FlightAware
09:14AM -34.9197 145.0673 187° South 435 501 36,000  Level Aus ATC (RADAR)
09:14AM -34.9530 145.0620 187° South 434 499 36,000  Level FlightAware
09:15AM -35.0989 145.0407 187° South 434 499 36,000  Level Aus ATC (RADAR)
09:15AM -35.0950 145.0410 187° South 434 499 36,000  Level FlightAware
09:16AM -35.1787 145.0294 187° South 434 499 36,000  Level Aus ATC (RADAR)
09:16AM -35.1900 145.0280 187° South 434 499 36,000  Level FlightAware
09:17AM -35.2550 145.0180 187° South 434 499 36,000  Level FlightAware
09:17AM -35.3083 145.0105 187° South 435 501 36,000  Level Aus ATC (RADAR)
09:18AM -35.3580 145.0030 187° South 435 501 36,000  Level FlightAware
09:18AM -35.4390 144.9910 187° South 436 502 36,000  Level FlightAware
09:19AM -35.5270 144.9780 187° South 437 503 36,000  Level FlightAware
09:20AM -35.5980 144.9683 187° South 438 504 36,000  Level Aus ATC (RADAR)
09:20AM -35.6180 144.9650 187° South 438 504 36,000  Level FlightAware
09:20AM -35.6990 144.9530 187° South 438 504 36,000  Level FlightAware
09:21AM -35.7820 144.9410 187° South 437 503 36,000 60 Level FlightAware
09:22AM -35.8487 144.9311 187° South 436 502 36,100  Climbing Aus ATC (RADAR)
09:22AM -35.8600 144.9290 187° South 435 501 36,000 -660 Descending FlightAware
09:23AM -35.9510 144.9160 187° South 431 496 35,500 -1,200 Descending FlightAware
09:23AM -36.0290 144.9040 187° South 425 489 34,300 -2,400 Descending FlightAware
09:24AM -36.0949 144.8943 187° South 427 491 32,800 -2,880 Descending Aus ATC (RADAR)
09:24AM -36.1080 144.8930 187° South 427 491 32,400 -2,820 Descending FlightAware
09:25AM -36.1940 144.8800 187° South 426 490 30,200 -2,940 Descending FlightAware
09:25AM -36.2750 144.8680 187° South 434 499 28,300 -2,940 Descending FlightAware
09:26AM -36.3316 144.8595 187° South 436 502 27,100 -2,820 Descending Aus ATC (RADAR)
09:26AM -36.3640 144.8550 187° South 443 510 26,200 -2,700 Descending FlightAware
09:27AM -36.4450 144.8420 187° South 437 503 24,400 -2,820 Descending FlightAware
09:27AM -36.4632 144.8394 187° South 439 505 24,200 -2,820 Descending Aus ATC (RADAR)
09:27AM -36.5350 144.8290 187° South 422 486 22,300 -3,120 Descending FlightAware
09:28AM -36.5800 144.8222 187° South 420 483 21,100 -3,000 Descending Aus ATC (RADAR)
09:28AM -36.6110 144.8170 187° South 411 473 20,300 -2,340 Descending FlightAware
09:29AM -36.6921 144.8055 187° South 402 463 18,800 -2,280 Descending Aus ATC (RADAR)
09:29AM -36.6870 144.8060 187° South 400 460 18,800 -2,220 Level FlightAware
09:30AM -36.7680 144.7940 187° South 395 455 17,100 -2,400 Descending FlightAware
09:30AM -36.8107 144.7873 187° South 392 451 16,300 -2,280 Descending Aus ATC (RADAR)
09:30AM -36.8400 144.7830 187° South 384 442 15,600 -2,400 Descending FlightAware
09:31AM -36.9243 144.7704 187° South 375 432 13,700 -2,580 Descending Aus ATC (RADAR)
09:31AM -36.9180 144.7710 187° South 374 430 13,700 -2,880 Level FlightAware
09:32AM -36.9880 144.7610 187° South 367 422 11,700 -3,120 Descending FlightAware
09:32AM -37.0262 144.7548 187° South 366 421 10,700 -2,700 Descending Aus ATC (RADAR)
09:32AM -37.0550 144.7500 187° South 361 415 9,900 -2,220 Descending FlightAware
09:33AM -37.1010 144.7430 187° South 348 400 8,800 -1,800 Descending FlightAware
09:33AM -37.1490 144.7360 187° South 325 374 8,100 -1,440 Descending FlightAware
09:34AM -37.1840 144.7360 180° South 310 357 7,500 -2,280 Descending FlightAware
09:34AM -37.2070 144.7400 172° South 322 371 6,600 -2,040 Descending FlightAware
09:34AM -37.2500 144.7500 170° South 305 351 6,000 -840 Descending FlightAware
09:35AM -37.2900 144.7580 171° South 277 319 5,800 -600 Descending FlightAware
09:35AM -37.3210 144.7650 170° South 259 298 5,500 -780 Descending FlightAware
09:36AM -37.3390 144.7690 170° South 249 287 5,300 -1,080 Descending FlightAware
09:36AM -37.3670 144.7750 170° South 239 275 4,800 -900 Descending FlightAware
09:36AM -37.3820 144.7790 168° South 230 265 4,700 -540 Descending FlightAware
09:37AM -37.4130 144.7860 170° South 212 244 4,400 -600 Descending FlightAware
09:37AM -37.4378 144.7928 170° South 203 234 4,200 -720 Descending Aus ATC (RADAR)
09:37AM -37.4350 144.7920 170° South 198 228 4,100 -420 Descending FlightAware
09:38AM -37.4600 144.7990 167° South 179 206 4,000 -360 Descending FlightAware
09:38AM -37.4810 144.8030 171° South 170 196 3,800 -600 Descending FlightAware
09:38AM -37.4930 144.8050 172° South 164 189 3,600 -960 Descending FlightAware
09:39AM -37.5150 144.8090 172° South 159 183 3,100 -960 Descending FlightAware
09:39AM -37.5343 144.8127 172° South 156 180 2,800 -720 Descending Aus ATC (RADAR)
09:39AM -37.5310 144.8120 172° South 154 177 2,800 -780 Level FlightAware
09:40AM -37.5530 144.8160 172° South 150 173 2,400 -780 Descending FlightAware
09:40AM -37.5737 144.8200 172° South 135 155 2,100 -840 Descending Aus ATC (RADAR)
09:40AM -37.5730 144.8200 172° South 126 145 2,000 -900 Descending FlightAware
09:41AM -37.5870 144.8220 174° South 121 139 1,700 -600 Descending FlightAware
09:41AM -37.6010 144.8250 170° South 124 143 1,500 -600 Descending FlightAware
09:42AM -37.6130 144.8270 172° South 124 143 1,200 -720 Descending FlightAware
09:42AM -37.6350 144.8310 172° South 125 144 800 -720 Descending FlightAware
09:42AM -37.6430 144.8330 169° South 127 146 600 -840 Descending FlightAware